Time;durP1;ratioP1;P1;durP2;ratioP2;P2;SDS_P1;SDS_P2;PMS_P1;PMS_P2;Temp;Humidity;BMP_temperature;BMP_pressure;BME280_temperature;BME280_humidity;BME280_pressure;Samples;Min_cycle;Max_cycle;Signal;HPM_P1;HPM_P2
2023/10/30 00:00:54;;;;;;;12.52;0.82;;;13.30;98.90;;;;;;5012983;28;20111;-77
2023/10/30 00:03:19;;;;;;;4.07;1.13;;;13.30;98.80;;;;;;5021113;28;20075;-78
2023/10/30 00:05:45;;;;;;;8.50;1.23;;;13.30;99.10;;;;;;5012593;28;20432;-78
2023/10/30 00:08:11;;;;;;;4.85;0.40;;;13.40;98.80;;;;;;5022089;28;20061;-78
2023/10/30 00:10:37;;;;;;;5.47;0.90;;;13.40;98.30;;;;;;5015556;28;20542;-78
2023/10/30 00:13:02;;;;;;;3.17;0.40;;;13.40;98.30;;;;;;5025812;28;20046;-78
2023/10/30 00:15:28;;;;;;;6.38;0.82;;;13.40;98.50;;;;;;4999643;28;20061;-78
2023/10/30 00:17:54;;;;;;;3.83;0.75;;;13.30;98.20;;;;;;5026005;28;20029;-78
2023/10/30 00:20:19;;;;;;;4.03;0.45;;;13.30;97.80;;;;;;5012334;28;20036;-79
2023/10/30 00:22:45;;;;;;;1.10;0.47;;;13.30;98.40;;;;;;5025456;28;20045;-78
2023/10/30 00:25:11;;;;;;;1.98;0.52;;;13.30;98.50;;;;;;5015038;28;20045;-78
2023/10/30 00:27:37;;;;;;;7.18;1.60;;;13.20;98.70;;;;;;5024720;28;20045;-79
2023/10/30 00:30:03;;;;;;;4.47;0.60;;;13.20;98.90;;;;;;5014470;28;20025;-78
2023/10/30 00:32:30;;;;;;;2.38;0.50;;;13.30;98.80;;;;;;5028661;28;20021;-79
2023/10/30 00:34:55;;;;;;;5.10;1.00;;;13.30;98.80;;;;;;5021660;28;20033;-78
2023/10/30 00:37:22;;;;;;;2.40;0.52;;;13.30;98.50;;;;;;5009398;28;20044;-77
2023/10/30 00:39:48;;;;;;;7.47;0.82;;;13.30;98.70;;;;;;5023216;28;20029;-78
2023/10/30 00:42:14;;;;;;;6.25;0.73;;;13.30;99.20;;;;;;5008660;28;20040;-77
2023/10/30 00:44:39;;;;;;;4.50;0.88;;;13.30;99.30;;;;;;5025220;28;20512;-78
2023/10/30 00:47:05;;;;;;;1.70;0.70;;;13.40;99.20;;;;;;5010635;28;20041;-78
2023/10/30 00:49:31;;;;;;;1.95;1.00;;;13.40;98.80;;;;;;5021072;28;20112;-77
2023/10/30 00:51:57;;;;;;;9.40;0.70;;;13.50;98.40;;;;;;5015948;28;20028;-77
2023/10/30 00:54:22;;;;;;;6.43;1.13;;;13.60;98.70;;;;;;5028696;28;20563;-77
2023/10/30 00:56:48;;;;;;;7.47;0.60;;;13.70;97.60;;;;;;5014702;28;20121;-78
2023/10/30 00:59:14;;;;;;;3.85;1.50;;;13.80;97.40;;;;;;5028981;28;20410;-78
2023/10/30 01:01:40;;;;;;;1.10;0.50;;;13.80;97.50;;;;;;5008200;28;20057;-77
2023/10/30 01:04:06;;;;;;;6.68;0.55;;;13.80;97.00;;;;;;5027885;28;20044;-78
2023/10/30 01:06:31;;;;;;;12.27;1.27;;;13.80;97.10;;;;;;5014588;28;20063;-78
2023/10/30 01:08:57;;;;;;;0.57;0.50;;;13.70;97.20;;;;;;5021445;28;20131;-78
2023/10/30 01:11:23;;;;;;;6.53;1.27;;;13.70;97.50;;;;;;5015859;28;20198;-77
2023/10/30 01:13:48;;;;;;;8.20;0.98;;;13.60;98.20;;;;;;5023894;28;20125;-77
2023/10/30 01:16:14;;;;;;;9.05;1.00;;;13.60;98.10;;;;;;5021137;28;20056;-77
2023/10/30 01:18:40;;;;;;;10.65;1.10;;;13.50;98.40;;;;;;5018395;28;20045;-78
2023/10/30 01:21:09;;;;;;;1.48;0.50;;;13.60;98.20;;;;;;5029234;28;20025;-77
2023/10/30 01:23:35;;;;;;;;;;;13.60;98.20;;;;;;5021615;28;20044;-77
2023/10/30 01:26:01;;;;;;;3.95;0.43;;;13.70;97.60;;;;;;5033679;28;19920;-78
2023/10/30 01:28:26;;;;;;;6.10;0.63;;;13.70;97.60;;;;;;5016756;28;20095;-79
2023/10/30 01:30:52;;;;;;;3.28;0.77;;;13.60;98.00;;;;;;5030443;28;20037;-79
2023/10/30 01:33:17;;;;;;;0.63;0.55;;;13.50;98.00;;;;;;5020605;28;20033;-79
2023/10/30 01:35:43;;;;;;;3.53;0.88;;;13.50;98.30;;;;;;5025414;28;20069;-78
2023/10/30 01:38:09;;;;;;;4.68;1.05;;;13.50;98.20;;;;;;5016838;28;20094;-78
2023/10/30 01:40:35;;;;;;;5.38;1.30;;;13.50;98.40;;;;;;5027661;28;20050;-79
2023/10/30 01:43:08;;;;;;;2.67;0.55;;;13.50;98.30;;;;;;5014824;28;20033;-79
2023/10/30 01:45:34;;;;;;;3.83;0.68;;;13.40;98.50;;;;;;5025829;28;20133;-79
2023/10/30 01:48:00;;;;;;;5.40;0.65;;;13.40;98.60;;;;;;5016114;28;20038;-78
2023/10/30 01:50:26;;;;;;;8.32;0.85;;;13.40;98.80;;;;;;5027413;28;20073;-78
2023/10/30 01:52:52;;;;;;;6.28;1.17;;;13.40;99.20;;;;;;5018596;28;20124;-78
2023/10/30 01:55:18;;;;;;;2.65;0.75;;;13.40;98.90;;;;;;5026100;28;21146;-78
2023/10/30 01:57:45;;;;;;;7.00;1.27;;;13.50;99.10;;;;;;5027351;28;20512;-78
2023/10/30 02:00:11;;;;;;;1.58;0.65;;;13.60;99.00;;;;;;5017372;28;20041;-78
2023/10/30 02:02:38;;;;;;;8.52;0.47;;;13.70;98.00;;;;;;5022775;28;20041;-78
2023/10/30 02:05:05;;;;;;;2.85;1.15;;;13.70;98.20;;;;;;5019665;28;20037;-78
2023/10/30 02:07:31;;;;;;;5.20;0.88;;;13.60;97.90;;;;;;5027260;28;20366;-78
2023/10/30 02:09:57;;;;;;;2.60;0.40;;;13.50;98.00;;;;;;5008281;28;20049;-78
2023/10/30 02:12:23;;;;;;;6.22;0.45;;;13.50;98.40;;;;;;5027147;28;20056;-78
2023/10/30 02:14:48;;;;;;;3.58;0.70;;;13.50;97.80;;;;;;5010057;28;20747;-79
2023/10/30 02:17:14;;;;;;;3.38;0.90;;;13.40;97.70;;;;;;5022111;28;20037;-79
2023/10/30 02:19:40;;;;;;;8.90;1.00;;;13.40;98.30;;;;;;5013448;28;20041;-78
2023/10/30 02:22:05;;;;;;;5.63;0.82;;;13.40;98.90;;;;;;5020039;28;20049;-79
2023/10/30 02:24:31;;;;;;;3.85;0.65;;;13.30;98.90;;;;;;5018860;28;20486;-77
2023/10/30 02:26:57;;;;;;;4.80;0.63;;;13.40;99.20;;;;;;5032401;28;20044;-78
2023/10/30 02:29:23;;;;;;;5.70;0.70;;;13.30;99.10;;;;;;5015655;28;20056;-78
2023/10/30 02:31:50;;;;;;;3.03;0.60;;;13.20;99.00;;;;;;5031083;28;20087;-78
2023/10/30 02:34:16;;;;;;;2.55;0.57;;;13.20;98.70;;;;;;5019022;28;20021;-78
2023/10/30 02:36:42;;;;;;;5.63;1.02;;;13.20;98.60;;;;;;5025000;28;20044;-78
2023/10/30 02:39:08;;;;;;;1.65;0.22;;;13.20;99.20;;;;;;5027093;28;20017;-78
2023/10/30 02:41:34;;;;;;;8.68;0.68;;;13.10;99.70;;;;;;5014558;28;20032;-78
2023/10/30 02:43:59;;;;;;;4.45;0.68;;;13.20;98.90;;;;;;5026076;28;20029;-78
2023/10/30 02:46:25;;;;;;;4.95;1.50;;;13.10;99.10;;;;;;5011776;28;20060;-78
2023/10/30 02:48:51;;;;;;;7.55;1.50;;;13.20;99.30;;;;;;5024969;28;20037;-78
2023/10/30 02:51:17;;;;;;;3.13;0.98;;;13.10;99.30;;;;;;5013511;28;20029;-78
2023/10/30 02:53:43;;;;;;;3.53;0.77;;;13.00;99.40;;;;;;5028931;28;20040;-79
2023/10/30 02:56:09;;;;;;;4.88;0.65;;;13.00;99.50;;;;;;5014214;28;20155;-78
2023/10/30 02:58:35;;;;;;;9.60;0.60;;;13.10;98.90;;;;;;5033587;28;20117;-78
2023/10/30 03:01:02;;;;;;;4.45;1.42;;;13.00;99.20;;;;;;5015717;28;20044;-78
2023/10/30 03:03:28;;;;;;;1.20;0.63;;;13.00;99.30;;;;;;5012327;28;20132;-79
2023/10/30 03:05:55;;;;;;;6.07;0.68;;;13.10;99.20;;;;;;5011434;28;20036;-78
2023/10/30 03:08:20;;;;;;;3.67;0.45;;;13.10;99.50;;;;;;5026612;28;20032;-78
2023/10/30 03:10:47;;;;;;;8.18;1.73;;;13.10;99.60;;;;;;4995784;28;20448;-78
2023/10/30 03:13:13;;;;;;;1.80;0.50;;;13.10;99.50;;;;;;5005777;28;20030;-78
2023/10/30 03:15:42;;;;;;;8.30;0.60;;;13.10;99.30;;;;;;4982022;28;20056;-78
2023/10/30 03:18:07;;;;;;;3.23;0.80;;;13.20;99.20;;;;;;5007611;28;20037;-78
2023/10/30 03:20:33;;;;;;;4.65;0.43;;;13.20;99.70;;;;;;5000928;28;20267;-79
2023/10/30 03:22:59;;;;;;;9.35;0.65;;;13.10;99.90;;;;;;4990880;28;20082;-78
2023/10/30 03:25:24;;;;;;;4.03;1.40;;;13.10;99.90;;;;;;5008986;28;20034;-79
2023/10/30 03:27:53;;;;;;;0.40;0.40;;;13.00;99.90;;;;;;4993740;28;20444;-78
2023/10/30 03:30:19;;;;;;;0.95;0.20;;;13.00;99.80;;;;;;5004973;28;20040;-79
2023/10/30 03:32:44;;;;;;;3.58;1.30;;;13.10;99.30;;;;;;4995091;28;20034;-78
2023/10/30 03:35:10;;;;;;;4.07;0.80;;;13.00;99.80;;;;;;5008662;28;20041;-78
2023/10/30 03:37:36;;;;;;;8.68;0.93;;;13.00;99.70;;;;;;4993457;28;21569;-78
2023/10/30 03:40:01;;;;;;;3.47;0.73;;;13.00;99.90;;;;;;5007907;28;20465;-77
2023/10/30 03:42:27;;;;;;;4.57;0.40;;;13.00;99.90;;;;;;4992052;28;20037;-78
2023/10/30 03:44:53;;;;;;;4.55;0.40;;;13.10;99.30;;;;;;5003608;28;20033;-78
2023/10/30 03:47:18;;;;;;;4.40;0.52;;;13.10;98.80;;;;;;4996716;28;20053;-78
2023/10/30 03:49:45;;;;;;;1.70;0.43;;;13.20;98.70;;;;;;4999162;28;20022;-78
2023/10/30 03:52:10;;;;;;;2.67;0.60;;;13.20;99.00;;;;;;4993283;28;20034;-78
2023/10/30 03:54:36;;;;;;;3.50;0.75;;;13.20;98.70;;;;;;5009084;28;20505;-77
2023/10/30 03:57:02;;;;;;;3.08;0.57;;;13.20;98.60;;;;;;4991288;28;20772;-78
2023/10/30 03:59:28;;;;;;;4.93;0.50;;;13.20;98.70;;;;;;4997557;28;20397;-78
2023/10/30 04:01:54;;;;;;;1.13;1.02;;;13.10;99.10;;;;;;5004681;28;20041;-78
2023/10/30 04:04:19;;;;;;;1.33;0.40;;;13.10;99.50;;;;;;5000239;28;20351;-78
2023/10/30 04:06:45;;;;;;;6.15;0.45;;;13.10;99.20;;;;;;5011370;28;20160;-77
2023/10/30 04:09:11;;;;;;;9.20;0.77;;;13.10;99.60;;;;;;4998207;28;20546;-78
2023/10/30 04:11:37;;;;;;;8.18;0.77;;;13.10;99.60;;;;;;5026958;28;20049;-77
2023/10/30 04:14:02;;;;;;;5.50;1.33;;;13.10;99.70;;;;;;5016586;28;20029;-77
2023/10/30 04:16:28;;;;;;;14.25;1.13;;;13.10;99.60;;;;;;5023007;28;20149;-78
2023/10/30 04:18:54;;;;;;;3.80;1.85;;;13.20;99.00;;;;;;5014245;28;20500;-77
2023/10/30 04:21:20;;;;;;;13.88;1.98;;;13.40;98.60;;;;;;5025784;28;20062;-77
2023/10/30 04:23:46;;;;;;;3.63;0.50;;;13.40;98.80;;;;;;5009969;28;20032;-77
2023/10/30 04:26:11;;;;;;;6.13;1.58;;;13.50;98.80;;;;;;5030778;28;20112;-78
2023/10/30 04:28:37;;;;;;;4.68;0.93;;;13.50;98.70;;;;;;5015322;28;20091;-78
2023/10/30 04:31:09;;;;;;;7.85;1.08;;;13.50;98.50;;;;;;5026814;28;20044;-77
2023/10/30 04:33:34;;;;;;;6.80;1.27;;;13.40;98.70;;;;;;5017745;28;20714;-77
2023/10/30 04:36:02;;;;;;;4.68;0.82;;;13.50;98.90;;;;;;5027994;28;20459;-78
2023/10/30 04:38:31;;;;;;;2.47;0.82;;;13.50;99.10;;;;;;5018893;28;20037;-78
2023/10/30 04:40:57;;;;;;;3.92;0.75;;;13.50;98.70;;;;;;5028000;28;20021;-77
2023/10/30 04:43:23;;;;;;;4.82;0.70;;;13.60;98.40;;;;;;5010385;28;20060;-77
2023/10/30 04:45:49;;;;;;;7.43;1.40;;;13.70;98.40;;;;;;5028826;28;20128;-77
2023/10/30 04:48:14;;;;;;;2.30;1.02;;;13.60;99.00;;;;;;5026468;28;20201;-78
2023/10/30 04:50:40;;;;;;;3.47;1.02;;;13.60;98.50;;;;;;5011507;28;20419;-77
2023/10/30 04:53:06;;;;;;;0.95;0.50;;;13.60;98.50;;;;;;5032662;28;20037;-77
2023/10/30 04:55:32;;;;;;;2.28;0.70;;;13.60;98.30;;;;;;5018957;28;20025;-78
2023/10/30 04:57:57;;;;;;;4.32;1.20;;;13.50;98.60;;;;;;5030806;28;20033;-77
2023/10/30 05:00:23;;;;;;;7.00;0.90;;;13.50;98.60;;;;;;5023181;28;20037;-78
2023/10/30 05:02:50;;;;;;;6.93;0.80;;;13.50;98.70;;;;;;5015231;28;20030;-78
2023/10/30 05:05:15;;;;;;;3.40;0.60;;;13.40;99.10;;;;;;5018975;28;20068;-78
2023/10/30 05:07:44;;;;;;;1.10;0.20;;;13.50;99.20;;;;;;5033349;28;20119;-77
2023/10/30 05:10:09;;;;;;;7.20;1.52;;;13.50;98.70;;;;;;5011886;28;20050;-78
2023/10/30 05:12:35;;;;;;;0.47;0.20;;;13.60;99.10;;;;;;5021955;28;20034;-78
2023/10/30 05:15:01;;;;;;;1.88;0.50;;;13.60;98.90;;;;;;5017119;28;20034;-78
2023/10/30 05:17:27;;;;;;;10.93;0.88;;;13.60;99.10;;;;;;5025973;28;20044;-78
2023/10/30 05:19:53;;;;;;;3.55;0.40;;;13.50;98.80;;;;;;5019496;28;20330;-78
2023/10/30 05:22:18;;;;;;;7.97;1.38;;;13.50;98.90;;;;;;5030284;28;20041;-78
2023/10/30 05:24:44;;;;;;;5.72;0.70;;;13.50;99.20;;;;;;5015032;28;20432;-78
2023/10/30 05:27:10;;;;;;;2.97;0.57;;;13.50;99.30;;;;;;5030127;28;20037;-78
2023/10/30 05:29:35;;;;;;;6.38;0.95;;;13.50;99.60;;;;;;5026093;28;20096;-77
2023/10/30 05:32:06;;;;;;;2.08;1.00;;;13.40;99.50;;;;;;5016311;28;20034;-78
2023/10/30 05:34:32;;;;;;;5.07;0.55;;;13.50;99.20;;;;;;5032782;28;20037;-78
2023/10/30 05:36:58;;;;;;;6.07;0.93;;;13.50;98.80;;;;;;5019599;28;20120;-78
2023/10/30 05:39:24;;;;;;;1.85;0.52;;;13.50;99.10;;;;;;5032113;28;20120;-78
2023/10/30 05:41:50;;;;;;;4.97;1.20;;;13.50;99.10;;;;;;5022122;28;20618;-78
2023/10/30 05:44:15;;;;;;;4.03;0.50;;;13.40;98.90;;;;;;5025669;28;20029;-78
2023/10/30 05:46:41;;;;;;;3.60;0.70;;;13.40;99.00;;;;;;5020771;28;20072;-78
2023/10/30 05:49:07;;;;;;;4.60;1.00;;;13.30;99.20;;;;;;5028792;28;20501;-78
2023/10/30 05:51:32;;;;;;;9.73;0.80;;;13.30;99.00;;;;;;5015324;28;20037;-78
2023/10/30 05:53:58;;;;;;;3.33;1.48;;;13.40;99.00;;;;;;5028172;28;20151;-78
2023/10/30 05:56:24;;;;;;;6.55;0.40;;;13.40;99.50;;;;;;5014123;28;20044;-78
2023/10/30 05:58:49;;;;;;;1.38;0.47;;;13.30;99.70;;;;;;5030273;28;20049;-78
2023/10/30 06:01:15;;;;;;;4.07;0.55;;;13.20;99.90;;;;;;5018688;28;20037;-79
2023/10/30 06:03:41;;;;;;;5.80;0.65;;;13.20;99.90;;;;;;5028106;28;20382;-78
2023/10/30 06:06:07;;;;;;;2.90;0.65;;;13.30;99.90;;;;;;5017145;28;20059;-78
2023/10/30 06:08:32;;;;;;;7.10;1.15;;;13.30;99.90;;;;;;5030850;28;20512;-77
2023/10/30 06:10:59;;;;;;;3.65;0.75;;;13.30;99.90;;;;;;5026021;28;20531;-77
2023/10/30 06:13:24;;;;;;;4.97;1.17;;;13.30;99.90;;;;;;5027013;28;20052;-77
2023/10/30 06:15:50;;;;;;;5.13;0.90;;;13.40;99.90;;;;;;5035043;28;20033;-78
2023/10/30 06:18:16;;;;;;;7.88;0.88;;;13.40;99.90;;;;;;5014135;28;20068;-79
2023/10/30 06:20:44;;;;;;;9.13;0.80;;;13.40;99.90;;;;;;5034438;28;20034;-77
2023/10/30 06:23:10;;;;;;;3.40;0.70;;;13.40;99.80;;;;;;5015237;28;20110;-78
2023/10/30 06:25:37;;;;;;;12.63;0.70;;;13.40;99.90;;;;;;5023528;28;20045;-77
2023/10/30 06:28:03;;;;;;;1.35;0.40;;;13.40;99.90;;;;;;5022742;28;20519;-77
2023/10/30 06:30:29;;;;;;;6.15;0.55;;;13.40;99.90;;;;;;5034547;28;20016;-78
2023/10/30 06:32:55;;;;;;;8.48;0.68;;;13.40;99.90;;;;;;5051347;28;20040;-77
2023/10/30 06:35:20;;;;;;;4.47;0.98;;;13.40;99.90;;;;;;5059767;28;20029;-78
2023/10/30 06:37:46;;;;;;;5.50;0.55;;;13.50;99.90;;;;;;5040571;28;20036;-78
2023/10/30 06:40:12;;;;;;;12.60;0.85;;;13.60;99.90;;;;;;5059237;28;20032;-78
2023/10/30 06:42:38;;;;;;;2.17;0.32;;;13.60;99.80;;;;;;5047086;28;20730;-78
2023/10/30 06:45:04;;;;;;;7.55;1.17;;;13.60;99.90;;;;;;5055702;28;20057;-76
2023/10/30 06:47:29;;;;;;;1.63;0.47;;;13.50;99.90;;;;;;5038003;28;20067;-77
2023/10/30 06:49:55;;;;;;;3.10;0.47;;;13.60;99.60;;;;;;5023269;28;20516;-79
2023/10/30 06:52:21;;;;;;;4.32;0.32;;;13.60;99.30;;;;;;5027510;28;20056;-79
2023/10/30 06:54:46;;;;;;;4.63;0.60;;;13.60;98.90;;;;;;5016651;28;21152;-79
2023/10/30 06:57:12;;;;;;;8.73;1.67;;;13.50;98.80;;;;;;5025270;28;20579;-79
2023/10/30 06:59:37;;;;;;;1.70;0.35;;;13.50;99.30;;;;;;5015799;28;20041;-79
2023/10/30 07:02:03;;;;;;;1.33;1.13;;;13.50;99.60;;;;;;5028744;28;20033;-79
2023/10/30 07:04:30;;;;;;;2.45;0.40;;;13.60;99.60;;;;;;5004711;28;20041;-79
2023/10/30 07:06:55;;;;;;;7.03;0.85;;;13.60;99.40;;;;;;5029156;28;20516;-79
2023/10/30 07:09:21;;;;;;;0.40;0.25;;;13.60;99.40;;;;;;5013936;28;20048;-79
2023/10/30 07:11:47;;;;;;;2.25;0.57;;;13.60;99.60;;;;;;5013635;28;20029;-79
2023/10/30 07:14:13;;;;;;;7.45;1.27;;;13.60;99.90;;;;;;5016038;28;20025;-79
2023/10/30 07:16:40;;;;;;;12.15;0.93;;;13.60;99.70;;;;;;5009617;28;20052;-79
2023/10/30 07:19:06;;;;;;;4.25;1.00;;;13.80;99.70;;;;;;5006108;28;20035;-79
2023/10/30 07:21:32;;;;;;;1.05;0.43;;;13.80;99.80;;;;;;5018299;28;20037;-78
2023/10/30 07:23:58;;;;;;;4.53;0.57;;;13.80;99.70;;;;;;5005566;28;20520;-79
2023/10/30 07:26:24;;;;;;;4.80;1.08;;;13.90;99.60;;;;;;5022332;28;20037;-78
2023/10/30 07:28:50;;;;;;;8.90;0.60;;;13.90;99.50;;;;;;5013684;28;20029;-79
2023/10/30 07:31:19;;;;;;;2.08;0.45;;;13.90;99.20;;;;;;5007494;28;20037;-79
2023/10/30 07:33:45;;;;;;;7.68;0.47;;;13.90;99.30;;;;;;5021334;28;20033;-78
2023/10/30 07:36:11;;;;;;;6.13;0.55;;;13.90;99.50;;;;;;5014642;28;20068;-78
2023/10/30 07:38:37;;;;;;;0.55;0.55;;;13.90;99.30;;;;;;5016696;28;20157;-78
2023/10/30 07:41:03;;;;;;;7.15;0.93;;;13.90;99.30;;;;;;4990238;28;20069;-77
2023/10/30 07:43:30;;;;;;;1.92;0.55;;;14.00;99.30;;;;;;4998963;28;20513;-78
2023/10/30 07:45:57;;;;;;;1.58;0.50;;;14.00;98.70;;;;;;4999484;28;20146;-79
2023/10/30 07:48:23;;;;;;;7.70;1.17;;;14.20;99.00;;;;;;5010342;28;20154;-78
2023/10/30 07:50:50;;;;;;;4.88;1.15;;;14.30;98.90;;;;;;4995544;28;20481;-78
2023/10/30 07:53:16;;;;;;;0.88;0.40;;;14.30;98.70;;;;;;5016974;28;20035;-79
2023/10/30 07:55:41;;;;;;;3.00;0.50;;;14.20;98.40;;;;;;4990445;28;21061;-80
2023/10/30 07:58:07;;;;;;;1.08;0.82;;;14.10;98.50;;;;;;5003269;28;20041;-78
2023/10/30 08:00:33;;;;;;;5.15;0.80;;;14.10;98.60;;;;;;5005444;28;20127;-78
2023/10/30 08:03:00;;;;;;;5.40;0.80;;;14.10;98.90;;;;;;5001646;28;20380;-81
2023/10/30 08:05:27;;;;;;;5.45;0.90;;;14.20;99.00;;;;;;4974203;28;20036;-73
2023/10/30 08:07:53;;;;;;;7.28;0.52;;;14.20;98.60;;;;;;4986567;28;20037;-77
2023/10/30 08:10:19;;;;;;;3.83;1.23;;;14.20;98.50;;;;;;4975107;28;20940;-78
2023/10/30 08:12:44;;;;;;;2.97;0.82;;;14.20;98.60;;;;;;4990700;28;20026;-79
2023/10/30 08:15:10;;;;;;;6.75;1.00;;;14.20;98.60;;;;;;4997603;28;20052;-76
2023/10/30 08:17:36;;;;;;;1.40;0.47;;;14.20;98.60;;;;;;4978920;28;20592;-78
2023/10/30 08:20:03;;;;;;;1.67;0.60;;;14.10;98.90;;;;;;4997242;28;20095;-77
2023/10/30 08:22:29;;;;;;;3.22;0.80;;;14.10;98.80;;;;;;4981802;28;20033;-75
2023/10/30 08:24:55;;;;;;;7.07;0.98;;;14.10;98.50;;;;;;4981582;28;20133;-75
2023/10/30 08:27:21;;;;;;;3.30;0.85;;;14.20;98.40;;;;;;4977138;28;20045;-78
2023/10/30 08:29:47;;;;;;;7.22;0.75;;;14.30;98.50;;;;;;4983259;28;20085;-75
2023/10/30 08:32:13;;;;;;;2.42;0.63;;;14.30;98.50;;;;;;4976092;28;20184;-80
2023/10/30 08:34:39;;;;;;;2.92;1.98;;;14.30;98.40;;;;;;4994127;28;20029;-79
2023/10/30 08:37:05;;;;;;;1.83;0.30;;;14.30;98.30;;;;;;4982215;28;20034;-83
2023/10/30 08:39:30;;;;;;;4.80;0.55;;;14.40;98.00;;;;;;4999574;28;20628;-81
2023/10/30 08:41:56;;;;;;;2.67;0.60;;;14.40;98.00;;;;;;4988302;28;20390;-81
2023/10/30 08:44:21;;;;;;;8.63;0.80;;;14.50;97.30;;;;;;4993948;28;20077;-80
2023/10/30 08:46:47;;;;;;;12.23;1.17;;;14.60;97.60;;;;;;4981224;28;21105;-77
2023/10/30 08:49:13;;;;;;;2.92;0.50;;;14.70;97.50;;;;;;4991773;28;20030;-79
2023/10/30 08:51:41;;;;;;;0.55;0.30;;;14.90;97.00;;;;;;4981763;28;20238;-75
2023/10/30 08:54:07;;;;;;;1.42;0.60;;;15.00;96.90;;;;;;4998129;28;20025;-80
2023/10/30 08:56:33;;;;;;;4.57;0.60;;;15.20;96.90;;;;;;4999691;28;20102;-77
2023/10/30 08:58:59;;;;;;;3.13;0.90;;;15.20;96.90;;;;;;4981245;28;20116;-76
2023/10/30 09:01:25;;;;;;;3.53;0.98;;;15.30;97.80;;;;;;4996155;28;21011;-75
2023/10/30 09:03:52;;;;;;;1.42;0.38;;;15.40;99.90;;;;;;4983526;28;20398;-78
2023/10/30 09:06:18;;;;;;;5.40;0.60;;;15.30;96.90;;;;;;4977268;28;20037;-75
2023/10/30 09:08:44;;;;;;;1.45;0.43;;;15.30;96.60;;;;;;4981148;28;20037;-77
2023/10/30 09:11:09;;;;;;;12.82;1.02;;;15.40;95.90;;;;;;5001253;28;20831;-75
2023/10/30 09:13:35;;;;;;;5.43;0.80;;;15.40;96.30;;;;;;5004238;28;20029;-74
2023/10/30 09:16:00;;;;;;;5.03;1.17;;;15.60;96.00;;;;;;5012496;28;20057;-76
2023/10/30 09:18:26;;;;;;;5.78;0.70;;;15.80;95.80;;;;;;4987720;28;20124;-77
2023/10/30 09:20:52;;;;;;;5.78;0.68;;;15.90;95.20;;;;;;5016636;28;20087;-75
2023/10/30 09:23:18;;;;;;;1.88;0.30;;;15.90;95.20;;;;;;5003252;28;20436;-75
2023/10/30 09:25:43;;;;;;;1.50;0.80;;;15.80;95.30;;;;;;5008397;28;20037;-76
2023/10/30 09:28:09;;;;;;;2.95;0.82;;;15.70;95.20;;;;;;4998285;28;20043;-75
2023/10/30 09:30:35;;;;;;;4.20;1.10;;;15.70;95.60;;;;;;5007217;28;20999;-74
2023/10/30 09:33:00;;;;;;;3.33;0.63;;;15.50;95.30;;;;;;5001266;28;20528;-76
2023/10/30 09:35:31;;;;;;;5.75;0.70;;;15.60;95.70;;;;;;5006378;28;20025;-76
2023/10/30 09:37:58;;;;;;;5.32;0.80;;;15.50;95.80;;;;;;5017401;28;20037;-75
2023/10/30 09:40:26;;;;;;;2.70;0.63;;;15.60;96.20;;;;;;5017967;28;20030;-75
2023/10/30 09:42:52;;;;;;;10.50;1.00;;;15.50;96.90;;;;;;5019090;28;20040;-76
2023/10/30 09:45:22;;;;;;;4.97;0.68;;;15.60;96.30;;;;;;4999864;28;20052;-76
2023/10/30 09:47:49;;;;;;;;;;;15.60;96.30;;;;;;5016626;28;20034;-77
2023/10/30 09:50:17;;;;;;;0.70;0.50;;;15.80;95.70;;;;;;5005710;28;20011;-74
2023/10/30 09:52:43;;;;;;;2.50;0.38;;;15.80;95.40;;;;;;5017828;28;20029;-75
2023/10/30 09:55:11;;;;;;;6.10;0.82;;;15.90;95.10;;;;;;4995219;28;20524;-74
2023/10/30 09:57:38;;;;;;;4.50;1.25;;;15.90;95.30;;;;;;5008947;28;20041;-76
2023/10/30 10:00:05;;;;;;;4.30;0.65;;;15.80;95.20;;;;;;5003508;28;20133;-74
2023/10/30 10:02:32;;;;;;;3.08;0.30;;;15.70;95.10;;;;;;5007512;28;20033;-76
2023/10/30 10:04:58;;;;;;;4.93;0.35;;;15.80;95.20;;;;;;4996082;28;20041;-75
2023/10/30 10:07:26;;;;;;;6.47;0.95;;;15.80;95.40;;;;;;5016233;28;20407;-75
2023/10/30 10:09:57;;;;;;;4.45;0.45;;;15.80;94.80;;;;;;5005155;28;20048;-78
2023/10/30 10:12:23;;;;;;;2.33;0.50;;;15.90;95.10;;;;;;5008365;28;20731;-77
2023/10/30 10:14:48;;;;;;;4.60;0.70;;;15.80;94.70;;;;;;4997985;28;20063;-74
2023/10/30 10:17:14;;;;;;;4.90;0.85;;;15.90;95.00;;;;;;5008530;28;20048;-74
2023/10/30 10:19:46;;;;;;;4.75;0.50;;;15.90;94.90;;;;;;5005720;28;20508;-78
2023/10/30 10:22:25;;;;;;;1.50;0.30;;;15.90;94.80;;;;;;5014861;28;20092;-75
2023/10/30 10:24:52;;;;;;;1.10;0.70;;;16.00;95.10;;;;;;5021042;28;20885;-76
2023/10/30 10:27:19;;;;;;;1.15;0.30;;;16.00;94.50;;;;;;5015611;28;20115;-76
2023/10/30 10:29:53;;;;;;;9.38;0.60;;;15.90;94.80;;;;;;5009956;28;20029;-75
2023/10/30 10:32:19;;;;;;;3.33;0.52;;;16.00;94.70;;;;;;5008416;28;20036;-76
2023/10/30 10:34:48;;;;;;;2.90;0.43;;;16.00;94.20;;;;;;5019549;28;20052;-76
2023/10/30 10:37:17;;;;;;;2.25;0.50;;;16.10;94.70;;;;;;5004260;28;20501;-75
2023/10/30 10:39:51;;;;;;;;;;;16.10;94.90;;;;;;5014315;28;20630;-76
2023/10/30 10:42:18;;;;;;;5.45;0.65;;;16.20;94.40;;;;;;5009230;28;19947;-74
2023/10/30 10:44:45;;;;;;;3.30;0.80;;;16.30;93.70;;;;;;5013172;28;20047;-80
2023/10/30 10:47:11;;;;;;;3.20;1.15;;;16.30;93.60;;;;;;5010918;28;20459;-80
2023/10/30 10:49:37;;;;;;;1.23;0.57;;;16.40;93.80;;;;;;5016988;28;20857;-78
2023/10/30 10:52:13;;;;;;;4.38;1.20;;;16.40;93.70;;;;;;5002227;28;20512;-76
2023/10/30 10:55:02;;;;;;;5.45;0.30;;;16.40;94.00;;;;;;5019726;28;21055;-78
2023/10/30 10:57:31;;;;;;;;;;;16.40;93.90;;;;;;5004658;28;20116;-75
2023/10/30 11:00:06;;;;;;;1.38;0.40;;;16.50;93.90;;;;;;5017207;28;19923;-77
2023/10/30 11:02:37;;;;;;;14.38;0.85;;;16.40;93.70;;;;;;5009534;28;20048;-77
2023/10/30 11:05:05;;;;;;;3.45;0.55;;;16.40;94.00;;;;;;5015166;28;20116;-77
2023/10/30 11:07:40;;;;;;;5.30;0.77;;;16.40;94.00;;;;;;5008099;28;20875;-76
2023/10/30 11:10:13;;;;;;;5.10;0.75;;;16.50;93.60;;;;;;5015739;28;20163;-75
2023/10/30 11:12:58;;;;;;;3.72;0.77;;;16.40;93.70;;;;;;5005422;28;20032;-76
2023/10/30 11:15:34;;;;;;;2.72;0.60;;;16.40;93.70;;;;;;5017776;28;20033;-75
2023/10/30 11:18:17;;;;;;;1.40;0.32;;;16.50;93.50;;;;;;5001819;28;20468;-77
2023/10/30 11:20:44;;;;;;;2.47;0.80;;;16.60;93.20;;;;;;5016548;28;20083;-75
2023/10/30 11:23:12;;;;;;;11.63;0.95;;;16.60;93.30;;;;;;5008173;28;20060;-73
2023/10/30 11:25:39;;;;;;;5.55;0.45;;;16.50;93.40;;;;;;5011171;28;21755;-75
2023/10/30 11:28:04;;;;;;;1.40;0.60;;;16.50;94.00;;;;;;5007165;28;20037;-76
2023/10/30 11:30:33;;;;;;;2.97;0.63;;;16.60;93.70;;;;;;5015005;28;20471;-76
2023/10/30 11:32:58;;;;;;;1.60;0.50;;;16.50;93.20;;;;;;5006359;28;20057;-76
2023/10/30 11:35:28;;;;;;;3.05;0.30;;;16.50;93.80;;;;;;5017343;28;20457;-74
2023/10/30 11:37:54;;;;;;;;;;;16.60;93.50;;;;;;5005716;28;20379;-78
2023/10/30 11:40:20;;;;;;;2.63;0.63;;;16.80;93.50;;;;;;5014434;28;19916;-76
2023/10/30 11:42:45;;;;;;;5.68;0.65;;;17.00;93.10;;;;;;5006456;28;20273;-75
2023/10/30 11:45:22;;;;;;;4.20;1.35;;;17.10;93.40;;;;;;5015508;28;20033;-76
2023/10/30 11:47:55;;;;;;;2.20;0.80;;;17.00;93.20;;;;;;5009003;28;20048;-76
2023/10/30 11:50:26;;;;;;;2.90;0.40;;;17.00;92.60;;;;;;5017834;28;20053;-77
2023/10/30 11:52:52;;;;;;;2.10;0.57;;;16.90;92.90;;;;;;5007214;28;20041;-75
2023/10/30 11:55:19;;;;;;;1.83;0.60;;;17.00;93.00;;;;;;5016429;28;20040;-76
2023/10/30 11:57:45;;;;;;;3.22;0.55;;;17.10;93.30;;;;;;5008296;28;20035;-75
2023/10/30 12:00:11;;;;;;;6.18;0.60;;;17.10;92.60;;;;;;5018160;28;20708;-73
2023/10/30 12:02:40;;;;;;;4.40;0.50;;;17.00;93.30;;;;;;5015991;28;20092;-77
2023/10/30 12:05:06;;;;;;;1.65;0.73;;;16.90;93.40;;;;;;5008243;28;20630;-74
2023/10/30 12:07:32;;;;;;;1.65;0.40;;;16.80;93.60;;;;;;5027983;28;20049;-75
2023/10/30 12:10:01;;;;;;;3.25;0.60;;;16.90;92.40;;;;;;5021021;28;20052;-75
2023/10/30 12:12:27;;;;;;;8.70;0.95;;;16.80;93.10;;;;;;5018309;28;20033;-76
2023/10/30 12:14:55;;;;;;;7.13;0.55;;;16.90;93.90;;;;;;5016679;28;20041;-77
2023/10/30 12:17:21;;;;;;;1.65;0.50;;;16.80;93.20;;;;;;5026954;28;20041;-77
2023/10/30 12:19:47;;;;;;;3.97;0.52;;;16.80;93.10;;;;;;5022209;28;20061;-77
2023/10/30 12:22:12;;;;;;;10.00;0.73;;;16.90;93.10;;;;;;5027481;28;20045;-76
2023/10/30 12:24:38;;;;;;;3.03;0.57;;;17.00;92.20;;;;;;5010650;28;20393;-75
2023/10/30 12:27:04;;;;;;;4.28;0.73;;;17.10;92.00;;;;;;5023966;28;20036;-78
2023/10/30 12:29:29;;;;;;;2.75;0.43;;;17.50;92.00;;;;;;5007868;28;20231;-76
2023/10/30 12:32:03;;;;;;;2.63;0.77;;;17.50;91.60;;;;;;5015166;28;20428;-76
2023/10/30 12:34:30;;;;;;;1.38;0.38;;;17.40;92.10;;;;;;5013656;28;20033;-75
2023/10/30 12:36:56;;;;;;;2.17;0.60;;;17.50;91.00;;;;;;5022215;28;20037;-76
2023/10/30 12:39:24;;;;;;;5.00;0.52;;;17.40;91.90;;;;;;5003826;28;20037;-75
2023/10/30 12:41:55;;;;;;;6.13;0.90;;;17.30;92.00;;;;;;5022949;28;20037;-76
2023/10/30 12:44:21;;;;;;;3.00;0.70;;;17.20;91.90;;;;;;5011694;28;20037;-74